Time;durP1;ratioP1;P1;durP2;ratioP2;P2;SDS_P1;SDS_P2;PMS_P1;PMS_P2;Temp;Humidity;BMP_temperature;BMP_pressure;BME280_temperature;BME280_humidity;BME280_pressure;Samples;Min_cycle;Max_cycle;Signal;HPM_P1;HPM_P2
2023/10/19 00:02:31;;;;;;;37.80;19.80;;;;;;;4.49;80.20;99573.79;130202;1259;114738;-68
2023/10/19 00:05:33;;;;;;;37.70;19.00;;;;;;;4.47;80.16;99566.96;130183;1260;114798;-67
2023/10/19 00:08:41;;;;;;;33.90;18.20;;;;;;;4.46;80.24;99556.94;130224;1259;115260;-69
2023/10/19 00:11:43;;;;;;;30.50;17.10;;;;;;;4.44;80.51;99547.45;130079;1259;114722;-68
2023/10/19 00:14:45;;;;;;;36.10;18.80;;;;;;;4.47;80.49;99541.35;130176;1259;114738;-67
2023/10/19 00:17:53;;;;;;;40.00;19.40;;;;;;;4.48;80.53;99536.16;130183;1259;114752;-67
2023/10/19 00:24:19;;;;;;;31.30;17.50;;;;;;;4.52;80.73;99523.99;130221;1259;114859;-67
2023/10/19 00:27:23;;;;;;;34.10;17.60;;;;;;;4.53;80.73;99518.83;130114;1261;116457;-67
2023/10/19 00:30:30;;;;;;;34.20;18.80;;;;;;;4.54;80.76;99508.02;130009;1275;114849;-68
2023/10/19 00:33:32;;;;;;;37.00;18.50;;;;;;;4.55;80.74;99504.09;129783;1256;128185;-67
2023/10/19 00:36:38;;;;;;;30.60;18.00;;;;;;;4.54;80.62;99505.01;130126;1278;114712;-67
2023/10/19 00:39:47;;;;;;;39.40;20.10;;;;;;;4.55;80.63;99497.90;131235;1255;114746;-60
2023/10/19 00:42:54;;;;;;;38.20;18.70;;;;;;;4.54;80.54;99492.98;129989;1278;115319;-60
2023/10/19 00:45:56;;;;;;;37.60;18.20;;;;;;;4.52;80.87;99483.88;129660;1259;114718;-61
2023/10/19 00:49:05;;;;;;;33.40;17.00;;;;;;;4.52;80.71;99483.34;129744;1259;115315;-61
2023/10/19 00:52:23;;;;;;;34.70;18.00;;;;;;;4.52;80.60;99480.69;129725;1273;115161;-59
2023/10/19 00:55:27;;;;;;;40.50;18.30;;;;;;;4.51;80.68;99474.52;129786;1275;114813;-61
2023/10/19 00:58:30;;;;;;;37.90;18.80;;;;;;;4.52;80.74;99470.42;129583;1278;114946;-61
2023/10/19 01:01:36;;;;;;;31.70;17.80;;;;;;;4.53;80.78;99460.29;129830;1278;114769;-60
2023/10/19 01:04:42;;;;;;;29.00;16.60;;;;;;;4.56;80.85;99455.74;129777;1278;129091;-58
2023/10/19 01:07:45;;;;;;;34.10;17.90;;;;;;;4.52;80.76;99453.61;129703;1262;115256;-60
2023/10/19 01:10:51;;;;;;;32.60;17.50;;;;;;;4.46;80.93;99446.08;129927;1256;114972;-59
2023/10/19 01:13:55;;;;;;;40.10;19.20;;;;;;;4.42;80.95;99435.80;129873;1278;115468;-60
2023/10/19 01:16:57;;;;;;;35.00;19.60;;;;;;;4.36;80.93;99431.58;129907;1278;114991;-60
2023/10/19 01:20:07;;;;;;;38.40;19.70;;;;;;;4.31;81.16;99422.42;129801;1278;114795;-62
2023/10/19 01:26:18;;;;;;;35.20;19.00;;;;;;;4.22;81.19;99413.19;129880;1259;114868;-60
2023/10/19 01:29:26;;;;;;;35.00;18.30;;;;;;;4.22;81.18;99409.15;129675;1261;114895;-59
2023/10/19 01:32:29;;;;;;;42.20;20.60;;;;;;;4.22;81.34;99405.06;129715;1259;115183;-61
2023/10/19 01:36:10;;;;;;;42.20;20.50;;;;;;;4.22;81.40;99405.59;129802;1275;114769;-60
2023/10/19 01:38:58;;;;;;;38.00;20.10;;;;;;;4.25;81.50;99400.53;129939;1278;115240;-60
2023/10/19 01:41:59;;;;;;;;;;;;;;;4.26;81.48;99394.66;129682;1278;114858;-60
2023/10/19 01:45:02;;;;;;;39.10;20.50;;;;;;;4.24;81.42;99391.02;129689;1278;114849;-60
2023/10/19 01:48:06;;;;;;;37.90;21.80;;;;;;;4.25;81.62;99384.62;129753;1278;114716;-59
2023/10/19 01:51:13;;;;;;;40.00;20.10;;;;;;;4.25;81.65;99379.49;129729;1278;114946;-60
2023/10/19 01:54:18;;;;;;;42.00;20.40;;;;;;;4.23;81.65;99373.93;129643;1261;116548;-60
2023/10/19 01:57:20;;;;;;;34.50;19.20;;;;;;;4.22;81.49;99366.54;129766;1257;114762;-65
2023/10/19 02:00:23;;;;;;;35.50;18.00;;;;;;;4.22;81.63;99356.48;129620;1256;115031;-63
2023/10/19 02:03:27;;;;;;;37.90;20.30;;;;;;;4.20;81.47;99348.60;129857;1256;115180;-63
2023/10/19 02:09:39;;;;;;;38.40;21.00;;;;;;;4.22;81.75;99332.63;129727;1267;128851;-61
2023/10/19 02:12:42;;;;;;;43.60;23.60;;;;;;;4.22;82.15;99322.38;129814;1257;114717;-59
2023/10/19 02:15:44;;;;;;;45.10;22.90;;;;;;;4.22;82.14;99319.36;129793;1259;115407;-62
2023/10/19 02:18:46;;;;;;;43.30;23.10;;;;;;;4.22;82.04;99311.02;130077;1256;114793;-61
2023/10/19 02:21:58;;;;;;;38.00;21.10;;;;;;;4.22;82.10;99309.09;129767;1259;114796;-58
2023/10/19 02:25:01;;;;;;;37.40;20.80;;;;;;;4.22;82.08;99306.63;129639;1272;114845;-59
2023/10/19 02:28:07;;;;;;;36.50;21.40;;;;;;;4.22;82.34;99304.00;129776;1278;114725;-59
2023/10/19 02:31:18;;;;;;;37.40;21.20;;;;;;;4.22;82.25;99297.45;129768;1278;115173;-59
2023/10/19 02:34:22;;;;;;;36.20;20.00;;;;;;;4.23;82.20;99296.67;129577;1265;114802;-62
2023/10/19 02:37:25;;;;;;;33.70;20.40;;;;;;;4.25;82.25;99296.61;129707;1260;114806;-59
2023/10/19 02:40:31;;;;;;;35.00;20.60;;;;;;;4.28;82.29;99298.30;129800;1259;114735;-59
2023/10/19 02:43:34;;;;;;;39.40;22.40;;;;;;;4.31;82.36;99294.83;129691;1278;128916;-64
2023/10/19 02:46:41;;;;;;;41.00;22.20;;;;;;;4.34;82.36;99289.71;129562;1260;115144;-60
2023/10/19 02:49:50;;;;;;;46.30;23.20;;;;;;;4.35;82.22;99278.54;129536;1257;114931;-59
2023/10/19 02:52:53;;;;;;;40.90;22.30;;;;;;;4.34;82.27;99269.58;129853;1260;114713;-60
2023/10/19 02:55:55;;;;;;;38.80;21.90;;;;;;;4.32;82.28;99264.33;130014;1278;115222;-58
2023/10/19 02:59:03;;;;;;;44.20;24.10;;;;;;;4.32;82.25;99259.39;129749;1278;114716;-59
2023/10/19 03:05:14;;;;;;;39.90;22.00;;;;;;;4.31;82.34;99258.01;129472;1261;114882;-59
2023/10/19 03:08:19;;;;;;;42.80;22.50;;;;;;;4.30;82.36;99256.13;129758;1259;114780;-59
2023/10/19 03:11:24;;;;;;;43.40;22.60;;;;;;;4.32;82.39;99252.87;129691;1263;115135;-60
2023/10/19 03:14:27;;;;;;;40.50;21.10;;;;;;;4.32;82.51;99245.78;129674;1273;128305;-57
2023/10/19 03:17:30;;;;;;;40.50;22.40;;;;;;;4.31;82.54;99243.89;130138;1263;114737;-59
2023/10/19 03:20:33;;;;;;;42.40;23.80;;;;;;;4.31;82.61;99237.16;129930;1278;114822;-59
2023/10/19 03:23:35;;;;;;;48.60;23.30;;;;;;;4.30;82.72;99227.52;129954;1259;114742;-59
2023/10/19 03:26:39;;;;;;;42.10;24.10;;;;;;;4.32;82.74;99224.77;127499;1269;3229393;-60
2023/10/19 03:29:46;;;;;;;35.10;17.50;;;;;;;4.33;82.79;99221.00;129828;1278;114746;-59
2023/10/19 03:32:48;;;;;;;41.20;23.60;;;;;;;4.32;82.71;99218.73;129873;1257;128850;-59
2023/10/19 03:35:51;;;;;;;42.10;23.90;;;;;;;4.32;82.60;99218.73;129856;1269;114746;-59
2023/10/19 03:38:54;;;;;;;42.00;23.90;;;;;;;4.33;82.82;99216.44;129779;1269;114783;-59
2023/10/19 03:41:57;;;;;;;43.60;26.40;;;;;;;4.31;82.75;99220.04;129876;1278;115243;-59
2023/10/19 03:45:07;;;;;;;47.90;25.40;;;;;;;4.29;82.92;99221.02;130014;1259;115143;-59
2023/10/19 03:48:10;;;;;;;44.10;25.90;;;;;;;4.28;82.95;99214.16;129633;1260;114791;-59
2023/10/19 03:51:13;;;;;;;49.50;24.50;;;;;;;4.25;82.91;99204.71;129785;1260;114793;-61
2023/10/19 03:54:21;;;;;;;48.40;26.40;;;;;;;4.25;82.86;99203.28;129834;1259;114742;-59
2023/10/19 03:57:29;;;;;;;49.90;26.70;;;;;;;4.26;82.93;99201.69;129532;1256;114807;-59
2023/10/19 04:00:34;;;;;;;47.20;24.30;;;;;;;4.27;83.17;99194.22;129771;1260;115403;-59
2023/10/19 04:03:36;;;;;;;55.20;27.00;;;;;;;4.26;83.04;99185.23;129777;1259;114704;-59
2023/10/19 04:06:40;;;;;;;45.10;26.20;;;;;;;4.26;83.14;99185.02;129892;1278;114850;-60
2023/10/19 04:09:58;;;;;;;41.20;23.90;;;;;;;4.27;83.25;99177.27;129673;1269;114808;-60
2023/10/19 04:13:02;;;;;;;47.50;26.70;;;;;;;4.27;83.39;99171.96;129747;1269;114777;-62
2023/10/19 04:16:10;;;;;;;45.70;27.00;;;;;;;4.27;83.30;99165.59;129449;1278;116170;-58
2023/10/19 04:19:14;;;;;;;40.80;25.80;;;;;;;4.25;83.46;99162.98;129402;1260;114991;-57
2023/10/19 04:22:22;;;;;;;49.60;27.70;;;;;;;4.26;83.55;99160.52;129678;1278;127948;-59
2023/10/19 04:25:27;;;;;;;50.40;27.00;;;;;;;4.27;83.33;99156.38;129575;1259;115222;-60
2023/10/19 04:28:38;;;;;;;56.80;28.40;;;;;;;4.28;83.40;99149.46;129801;1273;114750;-60
2023/10/19 04:31:59;;;;;;;43.90;26.20;;;;;;;4.30;83.60;99145.34;129610;1258;116351;-58
2023/10/19 04:35:03;;;;;;;45.70;26.70;;;;;;;4.31;83.53;99146.69;129599;1273;114767;-62
2023/10/19 04:38:08;;;;;;;51.10;27.70;;;;;;;4.33;83.41;99144.82;129528;1278;128543;-60
2023/10/19 04:41:11;;;;;;;53.50;28.20;;;;;;;4.35;83.58;99142.46;129517;1278;115255;-59
2023/10/19 04:44:15;;;;;;;49.90;28.60;;;;;;;4.36;83.66;99137.63;129707;1257;114770;-59
2023/10/19 04:47:17;;;;;;;54.90;29.80;;;;;;;4.38;83.56;99135.91;129752;1269;114809;-60
2023/10/19 04:50:19;;;;;;;53.20;28.30;;;;;;;4.42;83.62;99137.91;129744;1260;114708;-59
2023/10/19 04:53:21;;;;;;;52.00;29.00;;;;;;;4.44;83.73;99137.48;129839;1270;114692;-59
2023/10/19 04:56:24;;;;;;;48.80;25.90;;;;;;;4.47;83.62;99137.52;129486;1278;128624;-59
2023/10/19 04:59:26;;;;;;;46.50;26.80;;;;;;;4.48;83.64;99131.11;129798;1269;114794;-60
2023/10/19 05:02:28;;;;;;;49.20;28.60;;;;;;;4.48;83.72;99118.55;130001;1258;114773;-59
2023/10/19 05:05:30;;;;;;;50.50;27.20;;;;;;;4.49;83.54;99114.08;129960;1260;114708;-61
2023/10/19 05:08:32;;;;;;;55.20;28.90;;;;;;;4.50;83.60;99116.33;129793;1259;114723;-60
2023/10/19 05:11:34;;;;;;;52.40;26.10;;;;;;;4.51;83.61;99112.04;129992;1259;114776;-59
2023/10/19 05:14:38;;;;;;;51.00;26.40;;;;;;;4.53;83.49;99110.40;129699;1271;114792;-61
2023/10/19 05:17:41;;;;;;;45.40;27.00;;;;;;;4.54;83.71;99106.45;129751;1260;128025;-59
2023/10/19 05:20:43;;;;;;;45.60;26.30;;;;;;;4.54;83.55;99099.00;130010;1260;114737;-59
2023/10/19 05:23:45;;;;;;;40.90;24.90;;;;;;;4.56;83.63;99096.13;129936;1259;114855;-60
2023/10/19 05:26:49;;;;;;;48.10;27.00;;;;;;;4.57;83.48;99090.77;129842;1269;114747;-59
2023/10/19 05:29:51;;;;;;;48.80;25.80;;;;;;;4.59;83.53;99083.97;129745;1260;114814;-59
2023/10/19 05:32:55;;;;;;;51.70;27.80;;;;;;;4.62;83.67;99082.94;129983;1256;114682;-60
2023/10/19 05:35:57;;;;;;;42.60;25.00;;;;;;;4.63;83.64;99081.65;129768;1269;114770;-60
2023/10/19 05:38:59;;;;;;;45.20;26.50;;;;;;;4.64;83.49;99078.59;129841;1269;114693;-60
2023/10/19 05:42:01;;;;;;;50.10;25.80;;;;;;;4.65;83.39;99074.80;129800;1278;115244;-60
2023/10/19 05:45:05;;;;;;;44.30;24.60;;;;;;;4.67;83.49;99072.80;129754;1272;115164;-60
2023/10/19 05:48:07;;;;;;;44.00;26.00;;;;;;;4.68;83.57;99073.45;129833;1260;114789;-58
2023/10/19 05:51:10;;;;;;;46.60;24.70;;;;;;;4.70;83.60;99068.75;129758;1269;114776;-58
2023/10/19 05:54:12;;;;;;;50.00;24.70;;;;;;;4.72;83.26;99057.52;129847;1270;115365;-59
2023/10/19 05:57:15;;;;;;;41.90;24.80;;;;;;;4.76;83.25;99064.99;129958;1256;128812;-59
2023/10/19 06:00:20;;;;;;;41.00;24.60;;;;;;;4.79;83.39;99063.58;129829;1270;115258;-59
2023/10/19 06:03:22;;;;;;;41.10;23.80;;;;;;;4.85;83.40;99066.67;129585;1259;114860;-59
2023/10/19 06:06:25;;;;;;;42.30;24.20;;;;;;;4.92;83.24;99061.42;129853;1260;114811;-60
2023/10/19 06:09:30;;;;;;;42.70;24.00;;;;;;;4.96;83.46;99055.54;129822;1260;114715;-59
2023/10/19 06:12:34;;;;;;;44.70;24.20;;;;;;;5.01;83.23;99049.33;129478;1278;128517;-59
2023/10/19 06:15:37;;;;;;;44.40;24.30;;;;;;;5.05;83.33;99049.30;129584;1263;115174;-59
2023/10/19 06:18:39;;;;;;;42.30;23.70;;;;;;;5.12;83.18;99053.08;129910;1257;115389;-59
2023/10/19 06:21:42;;;;;;;42.30;23.20;;;;;;;5.20;83.16;99051.09;129955;1255;115057;-59
2023/10/19 06:24:44;;;;;;;47.10;24.30;;;;;;;5.25;83.22;99045.90;129909;1260;114746;-59
2023/10/19 06:27:47;;;;;;;40.60;22.90;;;;;;;5.30;83.08;99049.90;129947;1276;114796;-60
2023/10/19 06:30:50;;;;;;;39.10;22.60;;;;;;;5.37;82.89;99051.53;129923;1273;128655;-60
2023/10/19 06:33:54;;;;;;;43.90;22.40;;;;;;;5.41;82.80;99053.08;130001;1261;114733;-59
2023/10/19 06:36:57;;;;;;;39.50;22.50;;;;;;;5.46;83.08;99056.00;129787;1260;114780;-59
2023/10/19 06:39:59;;;;;;;42.70;23.30;;;;;;;5.52;82.82;99058.41;129818;1261;114715;-60
2023/10/19 06:43:02;;;;;;;42.60;22.50;;;;;;;5.57;82.77;99059.41;130122;1263;115168;-60
2023/10/19 06:46:05;;;;;;;42.40;23.60;;;;;;;5.61;82.63;99048.20;129970;1260;114761;-58
2023/10/19 06:49:07;;;;;;;38.10;23.20;;;;;;;5.69;82.83;99046.79;129968;1278;115407;-59
2023/10/19 06:52:11;;;;;;;39.00;21.40;;;;;;;5.74;82.66;99040.65;129830;1259;115084;-58
2023/10/19 06:55:16;;;;;;;37.70;23.00;;;;;;;5.78;82.55;99042.42;129618;1264;114904;-59
2023/10/19 06:58:21;;;;;;;;;;;;;;;5.82;82.51;99042.39;129614;1263;114814;-59
2023/10/19 07:01:26;;;;;;;39.40;25.00;;;;;;;5.86;82.44;99038.66;129596;1270;115338;-59
2023/10/19 07:04:29;;;;;;;41.50;26.20;;;;;;;5.91;82.68;99039.98;129855;1268;128970;-58
2023/10/19 07:07:31;;;;;;;44.60;25.60;;;;;;;5.97;82.55;99040.61;130015;1259;114721;-58
2023/10/19 07:10:34;;;;;;;44.80;26.50;;;;;;;6.02;82.58;99033.83;129801;1260;114782;-60
2023/10/19 07:13:36;;;;;;;47.40;27.50;;;;;;;6.06;82.71;99027.25;129821;1269;114712;-58
2023/10/19 07:16:41;;;;;;;36.70;22.80;;;;;;;6.13;82.91;99020.34;129744;1257;114751;-59
2023/10/19 07:19:44;;;;;;;39.30;23.90;;;;;;;6.20;83.03;99013.54;129585;1261;115332;-60
2023/10/19 07:22:47;;;;;;;41.80;23.20;;;;;;;6.28;83.12;99012.79;129798;1276;114732;-59
2023/10/19 07:25:59;;;;;;;39.70;24.30;;;;;;;6.34;83.03;99013.37;129854;1260;114721;-59
2023/10/19 07:29:02;;;;;;;41.10;23.70;;;;;;;6.40;83.24;99011.29;129548;1257;114827;-60
2023/10/19 07:32:04;;;;;;;45.00;25.10;;;;;;;6.45;83.28;99013.87;129631;1264;114799;-62
2023/10/19 07:35:07;;;;;;;40.80;24.00;;;;;;;6.51;83.58;99014.73;129865;1267;114775;-58
2023/10/19 07:38:10;;;;;;;39.30;24.80;;;;;;;6.61;83.97;99005.36;129922;1257;114728;-63
2023/10/19 07:41:12;;;;;;;46.70;27.80;;;;;;;6.69;83.72;99002.65;129907;1263;114794;-60
2023/10/19 07:44:14;;;;;;;36.80;24.30;;;;;;;6.80;84.15;99000.10;129780;1278;115244;-62
2023/10/19 07:47:16;;;;;;;43.20;25.40;;;;;;;6.91;83.94;99000.22;129896;1259;114791;-59
2023/10/19 07:50:19;;;;;;;50.30;28.90;;;;;;;7.04;84.03;98995.56;129867;1263;114734;-60
2023/10/19 07:53:22;;;;;;;39.50;24.00;;;;;;;7.16;84.12;98993.65;129774;1257;115570;-59
2023/10/19 07:56:25;;;;;;;43.20;23.30;;;;;;;7.27;83.90;98985.06;129758;1260;114769;-59
2023/10/19 07:59:27;;;;;;;45.40;25.20;;;;;;;7.37;83.77;98984.46;129954;1256;114771;-59
2023/10/19 08:02:30;;;;;;;40.10;23.40;;;;;;;7.51;83.94;98977.65;129883;1258;114804;-59
2023/10/19 08:05:33;;;;;;;49.00;25.10;;;;;;;7.63;83.65;98977.48;129919;1260;114795;-58
2023/10/19 08:08:35;;;;;;;41.30;23.70;;;;;;;7.75;83.88;98973.73;129929;1256;114710;-60
2023/10/19 08:11:42;;;;;;;36.10;21.40;;;;;;;7.88;83.59;98967.66;129888;1257;114775;-59
2023/10/19 08:14:46;;;;;;;40.90;23.80;;;;;;;7.96;83.03;98959.87;129612;1278;115064;-60
2023/10/19 08:17:50;;;;;;;34.00;21.30;;;;;;;8.04;83.01;98955.27;129430;1266;128372;-60
2023/10/19 08:20:53;;;;;;;37.90;21.60;;;;;;;8.06;82.88;98950.35;129862;1270;114856;-60
2023/10/19 08:23:55;;;;;;;32.90;19.40;;;;;;;8.07;81.85;98941.25;129913;1258;115238;-60
2023/10/19 08:26:59;;;;;;;35.50;20.40;;;;;;;8.06;81.87;98942.02;129900;1260;114753;-61
2023/10/19 08:30:03;;;;;;;32.50;20.80;;;;;;;8.04;82.22;98925.61;129933;1269;114818;-62
2023/10/19 08:33:06;;;;;;;37.60;21.90;;;;;;;8.04;81.99;98915.48;129983;1270;114809;-60
2023/10/19 08:36:18;;;;;;;36.30;22.20;;;;;;;8.07;81.97;98912.80;129885;1269;114750;-60
2023/10/19 08:39:24;;;;;;;45.00;22.10;;;;;;;8.14;82.67;98915.92;129532;1263;115154;-60
2023/10/19 08:42:27;;;;;;;40.30;22.70;;;;;;;8.23;82.80;98911.46;129786;1264;114878;-59
2023/10/19 08:45:34;;;;;;;39.00;21.70;;;;;;;8.26;82.61;98913.41;129527;1264;114942;-60
2023/10/19 08:48:37;;;;;;;38.90;22.20;;;;;;;8.24;82.74;98909.98;130000;1278;129009;-60
2023/10/19 08:51:44;;;;;;;36.70;22.20;;;;;;;8.25;82.73;98913.46;129725;1264;116401;-59
2023/10/19 08:54:49;;;;;;;39.10;24.00;;;;;;;8.26;82.78;98915.01;129654;1264;115096;-61
2023/10/19 08:57:52;;;;;;;36.30;22.30;;;;;;;8.31;82.94;98923.60;129645;1273;114853;-60
2023/10/19 09:00:54;;;;;;;38.80;23.80;;;;;;;8.32;83.33;98926.55;129951;1258;115388;-60
2023/10/19 09:03:58;;;;;;;42.50;22.90;;;;;;;8.34;82.70;98927.30;129763;1268;114795;-60
2023/10/19 09:07:00;;;;;;;41.90;23.70;;;;;;;8.39;83.34;98927.55;129900;1259;114801;-59
2023/10/19 09:10:05;;;;;;;41.00;23.20;;;;;;;8.49;83.35;98920.39;130026;1259;114761;-59
2023/10/19 09:13:09;;;;;;;37.80;24.10;;;;;;;8.56;83.38;98914.93;129824;1278;114763;-59
2023/10/19 09:16:11;;;;;;;42.00;23.40;;;;;;;8.67;83.81;98910.84;129868;1270;114836;-59
2023/10/19 09:19:13;;;;;;;40.40;25.40;;;;;;;8.75;83.53;98915.55;129826;1270;115467;-58
2023/10/19 09:22:18;;;;;;;44.10;28.40;;;;;;;8.77;83.35;98921.29;129850;1260;114787;-59
2023/10/19 09:25:22;;;;;;;31.20;22.00;;;;;;;8.76;83.50;98932.22;129566;1267;115219;-58
2023/10/19 09:28:25;;;;;;;43.30;25.90;;;;;;;8.75;83.67;98932.08;129749;1260;114932;-59
2023/10/19 09:31:27;;;;;;;43.70;28.30;;;;;;;8.74;83.88;98937.98;129850;1260;114724;-60
2023/10/19 09:34:33;;;;;;;39.60;24.80;;;;;;;8.75;84.28;98939.01;129967;1260;116358;-58
2023/10/19 09:37:35;;;;;;;44.90;29.20;;;;;;;8.78;84.72;98938.13;129784;1276;127854;-59
2023/10/19 09:40:38;;;;;;;42.60;26.90;;;;;;;8.80;84.34;98939.56;129906;1257;114724;-57
2023/10/19 09:43:45;;;;;;;49.60;30.50;;;;;;;8.78;84.33;98936.66;130013;1258;114737;-59
2023/10/19 09:46:48;;;;;;;47.10;28.80;;;;;;;8.80;84.65;98933.74;129769;1260;114790;-60
2023/10/19 09:49:50;;;;;;;56.90;35.20;;;;;;;8.81;84.38;98928.66;129902;1260;114748;-58
2023/10/19 09:52:53;;;;;;;61.50;36.80;;;;;;;8.83;84.59;98921.23;129819;1260;114677;-60
2023/10/19 09:55:59;;;;;;;72.50;42.30;;;;;;;8.88;84.96;98925.05;130007;1258;114750;-59
2023/10/19 09:59:06;;;;;;;50.90;32.30;;;;;;;8.93;84.95;98927.73;129767;1259;114706;-59
2023/10/19 10:02:13;;;;;;;66.20;41.60;;;;;;;8.98;85.24;98925.82;129739;1279;114821;-66
2023/10/19 10:05:43;;;;;;;47.30;29.00;;;;;;;9.00;84.73;98917.33;129599;1260;115427;-65
2023/10/19 10:08:47;;;;;;;52.40;33.40;;;;;;;8.96;84.71;98906.50;130163;1261;127916;-66
2023/10/19 10:11:54;;;;;;;55.60;31.70;;;;;;;8.95;85.18;98899.46;129902;1261;114807;-67
2023/10/19 10:15:02;;;;;;;61.50;35.20;;;;;;;9.00;85.45;98894.01;129513;1260;114812;-67
2023/10/19 10:18:13;;;;;;;61.90;39.10;;;;;;;9.06;85.46;98890.73;130120;1257;114752;-67
2023/10/19 10:21:23;;;;;;;56.00;37.00;;;;;;;9.08;85.43;98886.49;130174;1259;116764;-66
2023/10/19 10:24:27;;;;;;;57.80;37.20;;;;;;;9.06;85.22;98880.05;129905;1263;127597;-67
2023/10/19 10:27:30;;;;;;;56.20;36.90;;;;;;;9.04;85.40;98871.77;130084;1260;114692;-67
2023/10/19 10:30:32;;;;;;;53.10;35.00;;;;;;;9.06;85.45;98862.95;130457;1259;114744;-66
2023/10/19 10:33:44;;;;;;;50.70;30.10;;;;;;;9.07;85.78;98858.23;129708;1261;115361;-66
2023/10/19 10:37:03;;;;;;;49.90;31.90;;;;;;;9.10;85.88;98856.63;130170;1257;114681;-67
2023/10/19 10:40:06;;;;;;;49.70;30.50;;;;;;;9.11;85.86;98855.69;130172;1255;128672;-66
2023/10/19 10:43:10;;;;;;;47.70;30.60;;;;;;;9.07;85.66;98857.36;130315;1278;114693;-67
2023/10/19 10:46:14;;;;;;;54.70;31.70;;;;;;;9.01;85.77;98850.61;129767;1259;114865;-65
2023/10/19 10:49:17;;;;;;;55.30;33.90;;;;;;;8.96;85.82;98836.73;129925;1263;115288;-65
2023/10/19 10:52:33;;;;;;;49.00;31.90;;;;;;;8.93;86.12;98832.30;130293;1260;114703;-67
2023/10/19 10:55:35;;;;;;;49.50;30.60;;;;;;;8.89;86.07;98826.00;130252;1261;129000;-67
2023/10/19 10:58:37;;;;;;;46.00;29.10;;;;;;;8.83;86.26;98828.00;130346;1256;114814;-66
2023/10/19 11:01:39;;;;;;;49.10;31.10;;;;;;;8.76;86.10;98823.81;130314;1259;114865;-65
2023/10/19 11:04:46;;;;;;;54.90;32.00;;;;;;;8.72;86.40;98813.88;129541;1274;115260;-66
2023/10/19 11:08:14;;;;;;;47.00;28.80;;;;;;;8.69;86.51;98810.19;130271;1257;115310;-66
2023/10/19 11:11:16;;;;;;;45.70;29.60;;;;;;;8.59;86.99;98797.14;129692;1272;114868;-67
2023/10/19 11:14:18;;;;;;;46.50;30.00;;;;;;;8.54;87.42;98789.26;129747;1261;114764;-66
2023/10/19 11:17:28;;;;;;;43.30;30.20;;;;;;;8.48;87.89;98765.23;129697;1259;114718;-66
2023/10/19 11:20:30;;;;;;;66.40;48.70;;;;;;;8.45;88.09;98759.02;129944;1261;115255;-56
2023/10/19 11:23:47;;;;;;;51.20;32.80;;;;;;;8.47;88.57;98776.35;129919;1256;114695;-57
2023/10/19 11:26:49;;;;;;;50.40;33.60;;;;;;;8.51;88.69;98774.17;129553;1264;114855;-60
2023/10/19 11:29:56;;;;;;;48.70;32.70;;;;;;;8.49;89.07;98776.81;129717;1272;114753;-58
2023/10/19 11:33:01;;;;;;;52.70;34.20;;;;;;;8.45;88.76;98779.67;134353;1256;128684;-60
2023/10/19 11:36:04;;;;;;;49.60;32.80;;;;;;;8.43;88.64;98772.70;134559;1256;113379;-57
2023/10/19 11:39:11;;;;;;;45.10;31.20;;;;;;;8.42;88.87;98771.17;134627;1255;112737;-58
2023/10/19 11:42:13;;;;;;;52.20;32.70;;;;;;;8.40;89.07;98766.02;130645;1259;114879;-58
2023/10/19 11:45:18;;;;;;;48.00;28.90;;;;;;;8.39;89.39;98751.97;129862;1274;114757;-57
2023/10/19 11:48:20;;;;;;;42.20;30.20;;;;;;;8.33;89.49;98742.93;129868;1261;128866;-59
2023/10/19 11:51:22;;;;;;;44.90;30.70;;;;;;;8.31;89.44;98743.41;129909;1258;114869;-57
2023/10/19 11:54:26;;;;;;;45.60;29.70;;;;;;;8.33;90.01;98743.83;129736;1259;114764;-57
2023/10/19 11:57:28;;;;;;;46.90;31.70;;;;;;;8.31;89.98;98739.64;130080;1258;114790;-57
2023/10/19 12:00:33;;;;;;;50.60;32.60;;;;;;;8.33;89.85;98726.20;129878;1256;115390;-57
2023/10/19 12:03:36;;;;;;;;;;;;;;;8.34;90.13;98722.04;129837;1259;114748;-56
2023/10/19 12:06:39;;;;;;;44.80;30.50;;;;;;;8.33;90.11;98721.96;129858;1260;114734;-57
2023/10/19 12:09:41;;;;;;;47.40;30.70;;;;;;;8.32;90.23;98721.80;130033;1259;114719;-58
2023/10/19 12:12:46;;;;;;;40.90;27.50;;;;;;;8.31;90.32;98716.40;129914;1259;114709;-58
2023/10/19 12:15:51;;;;;;;42.90;29.80;;;;;;;8.30;90.72;98707.71;129710;1279;114847;-57
2023/10/19 12:18:54;;;;;;;49.00;31.90;;;;;;;8.28;90.95;98706.80;129413;1257;114750;-58
2023/10/19 12:21:57;;;;;;;48.50;29.70;;;;;;;8.30;91.40;98704.34;129587;1260;115180;-58
2023/10/19 12:25:00;;;;;;;45.20;31.00;;;;;;;8.33;91.02;98698.08;129673;1271;114741;-57
2023/10/19 12:28:04;;;;;;;52.50;33.70;;;;;;;8.33;91.71;98692.55;129780;1261;114747;-62
2023/10/19 12:31:10;;;;;;;45.60;29.80;;;;;;;8.36;91.57;98683.66;129649;1256;114898;-62
2023/10/19 12:34:13;;;;;;;43.50;28.40;;;;;;;8.36;91.74;98678.32;129444;1279;115291;-64
2023/10/19 12:37:17;;;;;;;45.10;29.30;;;;;;;8.35;91.50;98675.56;129704;1261;114780;-58
2023/10/19 12:40:29;;;;;;;46.50;30.70;;;;;;;8.33;91.98;98674.25;129730;1276;114981;-58
2023/10/19 12:43:31;;;;;;;38.90;27.90;;;;;;;8.34;91.67;98675.09;129909;1278;114735;-59
2023/10/19 12:46:36;;;;;;;43.70;30.70;;;;;;;8.34;91.48;98672.60;130063;1259;114799;-60
2023/10/19 12:49:40;;;;;;;42.90;29.30;;;;;;;8.35;91.75;98671.49;129573;1265;114765;-60
2023/10/19 12:52:43;;;;;;;39.10;28.90;;;;;;;8.38;92.08;98667.56;129873;1257;128603;-59
2023/10/19 12:55:45;;;;;;;43.30;30.60;;;;;;;8.41;92.32;98668.96;129980;1258;114727;-61
2023/10/19 12:58:48;;;;;;;44.20;30.80;;;;;;;8.50;92.46;98664.27;129835;1259;114808;-62
2023/10/19 13:01:54;;;;;;;45.70;31.50;;;;;;;8.55;92.57;98655.24;129937;1260;114835;-58
2023/10/19 13:04:59;;;;;;;56.60;35.60;;;;;;;8.59;92.40;98657.46;129655;1261;116329;-58
2023/10/19 13:08:02;;;;;;;45.80;31.50;;;;;;;8.63;92.37;98655.20;129799;1258;114771;-63
2023/10/19 13:11:05;;;;;;;54.90;35.70;;;;;;;8.69;92.61;98647.52;129528;1260;127621;-58
2023/10/19 13:14:07;;;;;;;40.60;28.70;;;;;;;8.76;92.54;98645.11;129555;1264;116924;-58
2023/10/19 13:17:10;;;;;;;45.30;31.30;;;;;;;8.76;92.53;98647.58;129807;1255;115064;-63
2023/10/19 13:20:18;;;;;;;43.60;29.70;;;;;;;8.78;92.73;98651.01;129718;1256;114774;-60
2023/10/19 13:23:24;;;;;;;43.20;28.20;;;;;;;8.78;92.67;98642.95;129585;1256;114707;-63
2023/10/19 13:26:27;;;;;;;49.10;32.20;;;;;;;8.76;92.69;98641.19;129431;1260;114893;-61
2023/10/19 13:29:37;;;;;;;42.40;28.70;;;;;;;8.75;92.60;98640.35;129635;1262;114775;-63
2023/10/19 13:32:39;;;;;;;41.90;27.40;;;;;;;8.72;92.86;98631.27;129379;1270;115177;-63
2023/10/19 13:35:43;;;;;;;47.60;31.40;;;;;;;8.72;92.89;98630.05;129587;1261;114780;-64
2023/10/19 13:38:45;;;;;;;43.40;29.60;;;;;;;8.75;92.98;98633.80;129709;1255;114787;-59
2023/10/19 13:41:47;;;;;;;42.90;30.70;;;;;;;8.75;93.20;98629.45;129726;1270;114709;-62
2023/10/19 13:44:49;;;;;;;42.00;29.10;;;;;;;8.76;93.09;98627.11;129936;1263;114837;-59
2023/10/19 13:47:54;;;;;;;50.50;32.00;;;;;;;8.77;93.09;98624.70;129867;1259;128631;-62
2023/10/19 13:51:00;;;;;;;60.80;43.00;;;;;;;8.78;93.38;98630.17;129841;1259;115189;-62
2023/10/19 13:54:02;;;;;;;69.30;47.00;;;;;;;8.79;93.26;98633.64;129570;1262;114815;-61
2023/10/19 13:57:05;;;;;;;53.80;37.00;;;;;;;8.83;93.44;98636.95;129876;1272;114892;-65
2023/10/19 14:00:08;;;;;;;58.60;38.50;;;;;;;8.83;93.46;98626.42;129935;1260;115332;-61
2023/10/19 14:03:15;;;;;;;53.40;37.30;;;;;;;8.83;93.13;98619.14;129847;1257;114728;-64
2023/10/19 14:06:17;;;;;;;303.40;172.90;;;;;;;8.84;93.40;98616.95;129586;1263;115618;-60
2023/10/19 14:09:23;;;;;;;57.20;38.80;;;;;;;8.87;93.55;98613.69;129892;1259;114717;-62
2023/10/19 14:12:25;;;;;;;71.00;41.40;;;;;;;8.91;93.72;98610.27;129689;1262;114773;-64